Cuzco, Peru

8:08 AM PET on March 31, 2015 (GMT -0500)
Alejandro Velazco Astete | | Change Station
CLOSE
Current Station
Airport
Location: Cuzco,
Elevation: 10659 ft
Nearby Weather Stations

Elev 10659 ft 13.54 °S, 71.94 °W | Updated 8 minutes ago

Mostly Cloudy
Mostly Cloudy
50 °F
Feels Like 50 °F
N
0
Wind Variable Wind from North

Today
High -- | Low -- °F
--% Chance of Precip.
Yesterday
High -- | Low -- °F
Precip. -- in
5:52 AM 5:51 PM
Waxing Gibbous, 86% visible
Pressure 30.54 in
Visibility 5.6 miles
Clouds Few 4000 ft
Scattered Clouds 5000 ft
Mostly Cloudy 7000 ft
Dew Point 41 °F
Humidity 71%
Rainfall 0.00 in
Snow Depth Not available.
UV 2 out of 12
Pollen Not available.
Air Quality Not available.
Flu Activity Not available.
METAR SPZO 311300Z 00000KT 9000 FEW040 SCT050 BKN070 10/05 Q1034 NOSIG RMK PP000

More Conditions Fewer Conditions

Pressure 30.54 in
Visibility 5.6 miles
Clouds Few 4000 ft
Scattered Clouds 5000 ft
Mostly Cloudy 7000 ft
Dew Point 41 °F
Humidity 71%
Rainfall 0.00 in
Snow Depth Not available.
UV 2 out of 12
Pollen Not available.
Air Quality Not available.
Flu Activity Not available.
METAR SPZO 311300Z 00000KT 9000 FEW040 SCT050 BKN070 10/05 Q1034 NOSIG RMK PP000

More Conditions Fewer Conditions

10-Day Weather Forecast

Almanac

Astronomy

Mar. 31, 2015 Rise Set
Actual Time
Civil Twilight
Nautical Twilight
Astronomical Twilight
Moon
Length of Visible Light
Length of Day
Tomorrow will be .
, % of the Moon is Illuminated

Today's Extremes

Country Highs Country Lows

Community

WunderPhotos

Upload Photos

1,809,757 photos uploaded!

WunderBlogs® & News

Nearby

Air Quality

  Air Quality AQ Index Pollutant
Not available.

Snow Depth

Station Depth Elevation

Earthquake Activity

City Distance Mag. Time & Date
Minimum magnitude displayed is 2.5.

Coastal Water Temperatures

Place Temperature

Stations

Nearby Weather Stations

Station Location Temp. Windchill Dew Point Humidity Wind Precip. Elev Updated Type